Current | Forecast
Updated: 4:00 PM JST on June 20, 2018
Observed at Osaka Airport, Japan
Temperature 72°F
Humidity 94%
Dew Point 70°F
Wind SW at 4 mph
Pressure 29.56 in (Steady)
Conditions Light Rain Showers
Visibility 3.1 miles
UV 3 out of 16
Clouds (FEW) : 200 ft
Scattered Clouds (SCT) : 500 ft
Mostly Cloudy (BKN) : 700 ft
Yesterday's Maximum 75°F
Yesterday's Minimum 72°F approx.
Yesterday's Cooling Degree Days 8 approx.
Sunrise4:43 AM JST
Sunset7:13 PM JST
Moon Rise11:33 AM JST
Moon Set
Moon PhaseMoon Phase
Waxing Crescent
Raw METARMETAR RJOO 200700Z 23003KT 180V270 5000 -SHRA BR FEW002 SCT005 BKN007 22/21 Q1001


Monday
. High: 80° F.
Tuesday
. High: 78° F.
Wednesday
. High: 71° F.
Thursday
. High: 77° F.
Friday
. High: 78° F.
Saturday
. High: 77° F.
Sunday
. High: 80° F.
Monday
. High: 80° F.

Units: English | Metric

Find the Weather for any City, State or Zipcode, or Country:

U.S. State List | Severe Weather | Tropical Storms | Ski Conditions
United States | Canada | Central America | South America | Asia | Europe | Australia | Africa | Islands

Weather Underground

© Copyright 2018
The Weather Company, LLC